sensor_id;sensor_type;location;lat;lon;timestamp;P1;durP1;ratioP1;P2;durP2;ratioP2
50461;SDS011;45257;37.996;-122.328;2022-07-09T00:01:25;1.08;;;0.90;;
50461;SDS011;45257;37.996;-122.328;2022-07-09T00:03:52;1.60;;;1.15;;
50461;SDS011;45257;37.996;-122.328;2022-07-09T00:06:20;2.15;;;1.10;;
50461;SDS011;45257;37.996;-122.328;2022-07-09T00:08:47;2.83;;;1.00;;
50461;SDS011;45257;37.996;-122.328;2022-07-09T00:11:14;1.48;;;1.00;;
50461;SDS011;45257;37.996;-122.328;2022-07-09T00:13:41;3.28;;;1.13;;
50461;SDS011;45257;37.996;-122.328;2022-07-09T00:16:09;2.05;;;1.10;;
50461;SDS011;45257;37.996;-122.328;2022-07-09T00:18:37;1.95;;;1.20;;
50461;SDS011;45257;37.996;-122.328;2022-07-09T00:21:04;1.92;;;1.20;;
50461;SDS011;45257;37.996;-122.328;2022-07-09T00:23:31;1.90;;;1.23;;
50461;SDS011;45257;37.996;-122.328;2022-07-09T00:25:58;2.35;;;1.30;;
50461;SDS011;45257;37.996;-122.328;2022-07-09T00:28:25;1.98;;;1.45;;
50461;SDS011;45257;37.996;-122.328;2022-07-09T00:30:53;1.73;;;1.10;;
50461;SDS011;45257;37.996;-122.328;2022-07-09T00:33:20;3.05;;;1.88;;
50461;SDS011;45257;37.996;-122.328;2022-07-09T00:35:48;3.65;;;1.20;;
50461;SDS011;45257;37.996;-122.328;2022-07-09T00:38:15;1.90;;;1.38;;
50461;SDS011;45257;37.996;-122.328;2022-07-09T00:40:42;3.78;;;1.80;;
50461;SDS011;45257;37.996;-122.328;2022-07-09T00:43:19;6.07;;;1.50;;
50461;SDS011;45257;37.996;-122.328;2022-07-09T00:45:48;6.63;;;1.63;;
50461;SDS011;45257;37.996;-122.328;2022-07-09T00:48:15;5.95;;;1.80;;
50461;SDS011;45257;37.996;-122.328;2022-07-09T00:50:44;8.27;;;2.10;;
50461;SDS011;45257;37.996;-122.328;2022-07-09T00:53:13;4.68;;;1.65;;
50461;SDS011;45257;37.996;-122.328;2022-07-09T00:55:43;5.70;;;1.63;;
50461;SDS011;45257;37.996;-122.328;2022-07-09T00:58:13;9.75;;;2.38;;
50461;SDS011;45257;37.996;-122.328;2022-07-09T01:00:43;15.82;;;2.25;;
50461;SDS011;45257;37.996;-122.328;2022-07-09T01:03:11;9.98;;;2.00;;
50461;SDS011;45257;37.996;-122.328;2022-07-09T01:05:38;9.27;;;2.08;;
50461;SDS011;45257;37.996;-122.328;2022-07-09T01:08:06;6.35;;;1.85;;
50461;SDS011;45257;37.996;-122.328;2022-07-09T01:10:34;9.48;;;1.83;;
50461;SDS011;45257;37.996;-122.328;2022-07-09T01:13:02;10.45;;;2.03;;
50461;SDS011;45257;37.996;-122.328;2022-07-09T01:15:30;6.35;;;1.33;;
50461;SDS011;45257;37.996;-122.328;2022-07-09T01:17:58;8.98;;;1.88;;
50461;SDS011;45257;37.996;-122.328;2022-07-09T01:20:26;11.27;;;1.95;;
50461;SDS011;45257;37.996;-122.328;2022-07-09T01:22:54;6.80;;;2.00;;
50461;SDS011;45257;37.996;-122.328;2022-07-09T01:25:56;10.73;;;1.60;;
50461;SDS011;45257;37.996;-122.328;2022-07-09T01:28:16;7.00;;;1.90;;
50461;SDS011;45257;37.996;-122.328;2022-07-09T01:30:43;4.63;;;1.67;;
50461;SDS011;45257;37.996;-122.328;2022-07-09T01:33:10;6.38;;;1.70;;
50461;SDS011;45257;37.996;-122.328;2022-07-09T01:35:38;4.38;;;2.00;;
50461;SDS011;45257;37.996;-122.328;2022-07-09T01:38:05;4.70;;;1.95;;
50461;SDS011;45257;37.996;-122.328;2022-07-09T01:40:32;7.10;;;1.70;;
50461;SDS011;45257;37.996;-122.328;2022-07-09T01:42:59;6.45;;;1.65;;
50461;SDS011;45257;37.996;-122.328;2022-07-09T01:45:26;3.95;;;1.80;;
50461;SDS011;45257;37.996;-122.328;2022-07-09T01:47:53;4.32;;;1.70;;
50461;SDS011;45257;37.996;-122.328;2022-07-09T01:50:20;4.95;;;1.98;;
50461;SDS011;45257;37.996;-122.328;2022-07-09T01:52:47;9.13;;;2.10;;
50461;SDS011;45257;37.996;-122.328;2022-07-09T01:55:15;10.05;;;2.55;;
50461;SDS011;45257;37.996;-122.328;2022-07-09T01:57:42;12.48;;;2.40;;
50461;SDS011;45257;37.996;-122.328;2022-07-09T02:00:10;9.23;;;2.25;;
50461;SDS011;45257;37.996;-122.328;2022-07-09T02:02:38;6.88;;;2.15;;
50461;SDS011;45257;37.996;-122.328;2022-07-09T02:05:05;6.78;;;2.00;;
50461;SDS011;45257;37.996;-122.328;2022-07-09T02:07:34;8.73;;;2.30;;
50461;SDS011;45257;37.996;-122.328;2022-07-09T02:10:03;8.55;;;2.05;;
50461;SDS011;45257;37.996;-122.328;2022-07-09T02:12:30;9.60;;;2.10;;
50461;SDS011;45257;37.996;-122.328;2022-07-09T02:14:58;11.90;;;2.10;;
50461;SDS011;45257;37.996;-122.328;2022-07-09T02:17:25;7.35;;;2.17;;
50461;SDS011;45257;37.996;-122.328;2022-07-09T02:19:52;7.88;;;2.17;;
50461;SDS011;45257;37.996;-122.328;2022-07-09T02:22:19;9.43;;;2.50;;
50461;SDS011;45257;37.996;-122.328;2022-07-09T02:24:46;8.52;;;2.08;;
50461;SDS011;45257;37.996;-122.328;2022-07-09T02:27:13;8.60;;;2.67;;
50461;SDS011;45257;37.996;-122.328;2022-07-09T02:29:40;5.72;;;1.70;;
50461;SDS011;45257;37.996;-122.328;2022-07-09T02:32:07;5.90;;;1.90;;
50461;SDS011;45257;37.996;-122.328;2022-07-09T02:34:38;7.07;;;1.95;;
50461;SDS011;45257;37.996;-122.328;2022-07-09T02:37:05;6.68;;;1.85;;
50461;SDS011;45257;37.996;-122.328;2022-07-09T02:39:33;11.43;;;2.03;;
50461;SDS011;45257;37.996;-122.328;2022-07-09T02:42:00;4.72;;;1.85;;
50461;SDS011;45257;37.996;-122.328;2022-07-09T02:44:29;7.03;;;2.13;;
50461;SDS011;45257;37.996;-122.328;2022-07-09T02:46:56;4.70;;;1.63;;
50461;SDS011;45257;37.996;-122.328;2022-07-09T02:49:24;3.95;;;1.50;;
50461;SDS011;45257;37.996;-122.328;2022-07-09T02:51:51;6.05;;;1.63;;
50461;SDS011;45257;37.996;-122.328;2022-07-09T02:54:20;4.70;;;1.77;;
50461;SDS011;45257;37.996;-122.328;2022-07-09T02:56:47;5.10;;;2.05;;
50461;SDS011;45257;37.996;-122.328;2022-07-09T02:59:14;5.43;;;2.00;;
50461;SDS011;45257;37.996;-122.328;2022-07-09T03:01:41;3.97;;;1.65;;
50461;SDS011;45257;37.996;-122.328;2022-07-09T03:04:08;2.95;;;1.50;;
50461;SDS011;45257;37.996;-122.328;2022-07-09T03:06:35;4.25;;;1.73;;
50461;SDS011;45257;37.996;-122.328;2022-07-09T03:09:03;8.52;;;1.92;;
50461;SDS011;45257;37.996;-122.328;2022-07-09T03:11:30;5.32;;;1.75;;
50461;SDS011;45257;37.996;-122.328;2022-07-09T03:13:57;5.38;;;1.85;;
50461;SDS011;45257;37.996;-122.328;2022-07-09T03:16:24;6.50;;;1.70;;
50461;SDS011;45257;37.996;-122.328;2022-07-09T03:18:51;3.75;;;1.73;;
50461;SDS011;45257;37.996;-122.328;2022-07-09T03:21:18;6.20;;;1.60;;
50461;SDS011;45257;37.996;-122.328;2022-07-09T03:23:47;3.97;;;1.48;;
50461;SDS011;45257;37.996;-122.328;2022-07-09T03:26:14;4.72;;;1.98;;
50461;SDS011;45257;37.996;-122.328;2022-07-09T03:28:41;4.28;;;1.40;;
50461;SDS011;45257;37.996;-122.328;2022-07-09T03:31:08;4.60;;;1.50;;
50461;SDS011;45257;37.996;-122.328;2022-07-09T03:33:35;2.70;;;1.38;;
50461;SDS011;45257;37.996;-122.328;2022-07-09T03:36:03;3.70;;;1.48;;
50461;SDS011;45257;37.996;-122.328;2022-07-09T03:38:31;4.50;;;1.42;;
50461;SDS011;45257;37.996;-122.328;2022-07-09T03:40:58;4.53;;;1.40;;
50461;SDS011;45257;37.996;-122.328;2022-07-09T03:43:25;2.78;;;1.50;;
50461;SDS011;45257;37.996;-122.328;2022-07-09T03:45:53;2.50;;;1.38;;
50461;SDS011;45257;37.996;-122.328;2022-07-09T03:48:20;4.10;;;1.48;;
50461;SDS011;45257;37.996;-122.328;2022-07-09T03:50:47;2.47;;;1.15;;
50461;SDS011;45257;37.996;-122.328;2022-07-09T03:53:14;3.40;;;1.52;;
50461;SDS011;45257;37.996;-122.328;2022-07-09T03:55:41;2.67;;;1.20;;
50461;SDS011;45257;37.996;-122.328;2022-07-09T03:58:08;2.72;;;1.40;;
50461;SDS011;45257;37.996;-122.328;2022-07-09T04:00:35;3.88;;;1.63;;
50461;SDS011;45257;37.996;-122.328;2022-07-09T04:03:02;4.75;;;1.65;;
50461;SDS011;45257;37.996;-122.328;2022-07-09T04:05:29;1.85;;;1.20;;
50461;SDS011;45257;37.996;-122.328;2022-07-09T04:07:56;5.30;;;1.77;;
50461;SDS011;45257;37.996;-122.328;2022-07-09T04:10:23;2.63;;;1.17;;
50461;SDS011;45257;37.996;-122.328;2022-07-09T04:12:50;3.75;;;1.55;;
50461;SDS011;45257;37.996;-122.328;2022-07-09T04:15:17;4.43;;;1.60;;
50461;SDS011;45257;37.996;-122.328;2022-07-09T04:17:44;3.10;;;1.40;;
50461;SDS011;45257;37.996;-122.328;2022-07-09T04:20:13;2.08;;;1.25;;
50461;SDS011;45257;37.996;-122.328;2022-07-09T04:22:40;3.35;;;1.63;;
50461;SDS011;45257;37.996;-122.328;2022-07-09T04:25:07;3.60;;;1.33;;
50461;SDS011;45257;37.996;-122.328;2022-07-09T04:27:35;9.70;;;1.40;;
50461;SDS011;45257;37.996;-122.328;2022-07-09T04:30:05;4.05;;;1.27;;
50461;SDS011;45257;37.996;-122.328;2022-07-09T04:32:34;4.78;;;1.20;;
50461;SDS011;45257;37.996;-122.328;2022-07-09T04:35:02;2.47;;;1.38;;
50461;SDS011;45257;37.996;-122.328;2022-07-09T04:37:30;3.00;;;1.15;;
50461;SDS011;45257;37.996;-122.328;2022-07-09T04:39:57;6.60;;;1.50;;
50461;SDS011;45257;37.996;-122.328;2022-07-09T04:42:24;10.18;;;1.30;;
50461;SDS011;45257;37.996;-122.328;2022-07-09T04:44:51;3.80;;;1.60;;
50461;SDS011;45257;37.996;-122.328;2022-07-09T04:47:18;6.00;;;1.38;;
50461;SDS011;45257;37.996;-122.328;2022-07-09T04:49:45;1.83;;;1.10;;
50461;SDS011;45257;37.996;-122.328;2022-07-09T04:52:13;4.03;;;1.30;;
50461;SDS011;45257;37.996;-122.328;2022-07-09T04:54:45;3.40;;;1.08;;
50461;SDS011;45257;37.996;-122.328;2022-07-09T04:57:12;5.20;;;1.25;;
50461;SDS011;45257;37.996;-122.328;2022-07-09T04:59:40;2.40;;;1.23;;
50461;SDS011;45257;37.996;-122.328;2022-07-09T05:02:07;5.88;;;1.30;;
50461;SDS011;45257;37.996;-122.328;2022-07-09T05:04:34;4.60;;;1.73;;
50461;SDS011;45257;37.996;-122.328;2022-07-09T05:07:01;4.03;;;1.17;;
50461;SDS011;45257;37.996;-122.328;2022-07-09T05:09:28;3.08;;;1.10;;
50461;SDS011;45257;37.996;-122.328;2022-07-09T05:11:55;5.38;;;1.38;;
50461;SDS011;45257;37.996;-122.328;2022-07-09T05:14:22;1.20;;;0.80;;
50461;SDS011;45257;37.996;-122.328;2022-07-09T05:16:50;5.70;;;1.30;;
50461;SDS011;45257;37.996;-122.328;2022-07-09T05:19:17;4.03;;;1.33;;
50461;SDS011;45257;37.996;-122.328;2022-07-09T05:21:43;2.53;;;1.17;;
50461;SDS011;45257;37.996;-122.328;2022-07-09T05:24:11;3.13;;;1.30;;
50461;SDS011;45257;37.996;-122.328;2022-07-09T05:26:38;2.83;;;1.30;;
50461;SDS011;45257;37.996;-122.328;2022-07-09T05:29:06;6.72;;;1.25;;
50461;SDS011;45257;37.996;-122.328;2022-07-09T05:31:33;7.90;;;1.50;;
50461;SDS011;45257;37.996;-122.328;2022-07-09T05:34:00;11.98;;;1.85;;
50461;SDS011;45257;37.996;-122.328;2022-07-09T05:36:28;8.25;;;1.98;;
50461;SDS011;45257;37.996;-122.328;2022-07-09T05:38:56;8.57;;;2.00;;
50461;SDS011;45257;37.996;-122.328;2022-07-09T05:41:24;8.57;;;1.65;;
50461;SDS011;45257;37.996;-122.328;2022-07-09T05:43:52;5.82;;;1.38;;
50461;SDS011;45257;37.996;-122.328;2022-07-09T05:46:20;5.35;;;1.45;;
50461;SDS011;45257;37.996;-122.328;2022-07-09T05:48:47;5.75;;;1.52;;
50461;SDS011;45257;37.996;-122.328;2022-07-09T05:51:14;11.60;;;1.83;;
50461;SDS011;45257;37.996;-122.328;2022-07-09T05:53:41;7.72;;;1.65;;
50461;SDS011;45257;37.996;-122.328;2022-07-09T05:56:09;11.70;;;2.05;;
50461;SDS011;45257;37.996;-122.328;2022-07-09T05:58:36;7.50;;;1.65;;
50461;SDS011;45257;37.996;-122.328;2022-07-09T06:01:03;7.25;;;1.55;;
50461;SDS011;45257;37.996;-122.328;2022-07-09T06:03:31;10.48;;;1.55;;
50461;SDS011;45257;37.996;-122.328;2022-07-09T06:05:58;12.68;;;1.85;;
50461;SDS011;45257;37.996;-122.328;2022-07-09T06:08:26;8.57;;;1.92;;
50461;SDS011;45257;37.996;-122.328;2022-07-09T06:10:53;6.78;;;1.73;;
50461;SDS011;45257;37.996;-122.328;2022-07-09T06:13:20;9.68;;;1.85;;
50461;SDS011;45257;37.996;-122.328;2022-07-09T06:15:47;5.93;;;1.45;;
50461;SDS011;45257;37.996;-122.328;2022-07-09T06:18:14;8.80;;;1.90;;
50461;SDS011;45257;37.996;-122.328;2022-07-09T06:20:41;10.00;;;2.17;;
50461;SDS011;45257;37.996;-122.328;2022-07-09T06:23:08;9.00;;;1.48;;
50461;SDS011;45257;37.996;-122.328;2022-07-09T06:25:35;6.10;;;1.60;;
50461;SDS011;45257;37.996;-122.328;2022-07-09T06:28:03;6.75;;;1.80;;
50461;SDS011;45257;37.996;-122.328;2022-07-09T06:30:31;5.70;;;1.23;;
50461;SDS011;45257;37.996;-122.328;2022-07-09T06:33:02;4.65;;;1.15;;
50461;SDS011;45257;37.996;-122.328;2022-07-09T06:35:29;4.50;;;1.30;;
50461;SDS011;45257;37.996;-122.328;2022-07-09T06:37:57;5.13;;;1.63;;
50461;SDS011;45257;37.996;-122.328;2022-07-09T06:40:26;4.65;;;1.50;;
50461;SDS011;45257;37.996;-122.328;2022-07-09T06:42:53;5.05;;;1.25;;
50461;SDS011;45257;37.996;-122.328;2022-07-09T06:45:20;5.45;;;1.40;;
50461;SDS011;45257;37.996;-122.328;2022-07-09T06:47:47;5.57;;;1.13;;
50461;SDS011;45257;37.996;-122.328;2022-07-09T06:50:14;4.82;;;1.30;;
50461;SDS011;45257;37.996;-122.328;2022-07-09T06:52:41;5.15;;;1.70;;
50461;SDS011;45257;37.996;-122.328;2022-07-09T06:55:08;3.28;;;1.10;;
50461;SDS011;45257;37.996;-122.328;2022-07-09T06:57:36;6.25;;;1.17;;
50461;SDS011;45257;37.996;-122.328;2022-07-09T07:00:06;3.75;;;1.33;;
50461;SDS011;45257;37.996;-122.328;2022-07-09T07:02:34;5.28;;;2.03;;
50461;SDS011;45257;37.996;-122.328;2022-07-09T07:05:02;2.13;;;1.05;;
50461;SDS011;45257;37.996;-122.328;2022-07-09T07:07:30;5.18;;;1.40;;
50461;SDS011;45257;37.996;-122.328;2022-07-09T07:09:57;4.70;;;1.45;;
50461;SDS011;45257;37.996;-122.328;2022-07-09T07:12:24;3.75;;;1.48;;
50461;SDS011;45257;37.996;-122.328;2022-07-09T07:14:52;5.35;;;1.42;;
50461;SDS011;45257;37.996;-122.328;2022-07-09T07:17:19;5.85;;;1.30;;
50461;SDS011;45257;37.996;-122.328;2022-07-09T07:19:45;7.15;;;1.40;;
50461;SDS011;45257;37.996;-122.328;2022-07-09T07:22:12;4.80;;;1.42;;
50461;SDS011;45257;37.996;-122.328;2022-07-09T07:24:40;7.10;;;1.30;;
50461;SDS011;45257;37.996;-122.328;2022-07-09T07:27:07;2.92;;;1.38;;
50461;SDS011;45257;37.996;-122.328;2022-07-09T07:29:34;8.32;;;1.45;;
50461;SDS011;45257;37.996;-122.328;2022-07-09T07:32:01;2.67;;;1.10;;
50461;SDS011;45257;37.996;-122.328;2022-07-09T07:34:28;5.03;;;1.38;;
50461;SDS011;45257;37.996;-122.328;2022-07-09T07:36:55;3.85;;;1.35;;
50461;SDS011;45257;37.996;-122.328;2022-07-09T07:39:22;5.65;;;1.35;;
50461;SDS011;45257;37.996;-122.328;2022-07-09T07:41:50;4.03;;;1.10;;
50461;SDS011;45257;37.996;-122.328;2022-07-09T07:44:17;4.55;;;1.25;;
50461;SDS011;45257;37.996;-122.328;2022-07-09T07:46:44;3.47;;;1.40;;
50461;SDS011;45257;37.996;-122.328;2022-07-09T07:49:11;4.93;;;1.13;;
50461;SDS011;45257;37.996;-122.328;2022-07-09T07:51:38;5.85;;;1.63;;
50461;SDS011;45257;37.996;-122.328;2022-07-09T07:54:08;4.57;;;1.17;;
50461;SDS011;45257;37.996;-122.328;2022-07-09T07:56:35;3.42;;;1.20;;
50461;SDS011;45257;37.996;-122.328;2022-07-09T07:59:03;4.18;;;1.30;;
50461;SDS011;45257;37.996;-122.328;2022-07-09T08:01:31;8.02;;;1.48;;
50461;SDS011;45257;37.996;-122.328;2022-07-09T08:03:58;6.80;;;1.60;;
50461;SDS011;45257;37.996;-122.328;2022-07-09T08:06:25;6.05;;;1.42;;
50461;SDS011;45257;37.996;-122.328;2022-07-09T08:08:51;7.63;;;1.40;;
50461;SDS011;45257;37.996;-122.328;2022-07-09T08:11:18;4.15;;;1.25;;
50461;SDS011;45257;37.996;-122.328;2022-07-09T08:13:46;2.38;;;1.10;;
50461;SDS011;45257;37.996;-122.328;2022-07-09T08:16:13;4.50;;;1.00;;
50461;SDS011;45257;37.996;-122.328;2022-07-09T08:18:40;6.18;;;1.25;;
50461;SDS011;45257;37.996;-122.328;2022-07-09T08:21:07;3.70;;;1.48;;
50461;SDS011;45257;37.996;-122.328;2022-07-09T08:23:34;3.10;;;1.13;;
50461;SDS011;45257;37.996;-122.328;2022-07-09T08:26:17;4.70;;;1.40;;
50461;SDS011;45257;37.996;-122.328;2022-07-09T08:28:49;4.53;;;1.10;;
50461;SDS011;45257;37.996;-122.328;2022-07-09T08:31:17;4.88;;;1.50;;
50461;SDS011;45257;37.996;-122.328;2022-07-09T08:33:46;4.63;;;1.20;;
50461;SDS011;45257;37.996;-122.328;2022-07-09T08:36:13;3.08;;;1.00;;
50461;SDS011;45257;37.996;-122.328;2022-07-09T08:38:41;2.08;;;1.00;;
50461;SDS011;45257;37.996;-122.328;2022-07-09T08:41:08;6.68;;;1.33;;
50461;SDS011;45257;37.996;-122.328;2022-07-09T08:43:38;2.80;;;1.38;;
50461;SDS011;45257;37.996;-122.328;2022-07-09T08:46:05;4.85;;;1.25;;
50461;SDS011;45257;37.996;-122.328;2022-07-09T08:48:33;3.78;;;1.15;;
50461;SDS011;45257;37.996;-122.328;2022-07-09T08:51:02;5.60;;;1.40;;
50461;SDS011;45257;37.996;-122.328;2022-07-09T08:53:30;1.80;;;0.80;;
50461;SDS011;45257;37.996;-122.328;2022-07-09T08:55:57;3.83;;;1.02;;
50461;SDS011;45257;37.996;-122.328;2022-07-09T08:58:24;3.30;;;1.20;;
50461;SDS011;45257;37.996;-122.328;2022-07-09T09:00:51;2.95;;;0.98;;
50461;SDS011;45257;37.996;-122.328;2022-07-09T09:03:21;1.85;;;0.90;;
50461;SDS011;45257;37.996;-122.328;2022-07-09T09:06:07;3.72;;;1.05;;
50461;SDS011;45257;37.996;-122.328;2022-07-09T09:08:37;3.08;;;0.90;;
50461;SDS011;45257;37.996;-122.328;2022-07-09T09:11:07;2.35;;;0.82;;
50461;SDS011;45257;37.996;-122.328;2022-07-09T09:13:46;4.05;;;0.90;;
50461;SDS011;45257;37.996;-122.328;2022-07-09T09:16:17;1.70;;;0.90;;
50461;SDS011;45257;37.996;-122.328;2022-07-09T09:18:48;2.95;;;1.00;;
50461;SDS011;45257;37.996;-122.328;2022-07-09T09:21:21;3.92;;;1.08;;
50461;SDS011;45257;37.996;-122.328;2022-07-09T09:23:51;1.65;;;0.70;;
50461;SDS011;45257;37.996;-122.328;2022-07-09T09:26:25;6.18;;;0.80;;
50461;SDS011;45257;37.996;-122.328;2022-07-09T09:31:32;2.75;;;1.10;;
50461;SDS011;45257;37.996;-122.328;2022-07-09T09:36:37;2.35;;;0.85;;
50461;SDS011;45257;37.996;-122.328;2022-07-09T09:39:10;1.80;;;1.02;;
50461;SDS011;45257;37.996;-122.328;2022-07-09T09:41:50;1.58;;;1.10;;
50461;SDS011;45257;37.996;-122.328;2022-07-09T09:44:19;3.63;;;1.08;;
50461;SDS011;45257;37.996;-122.328;2022-07-09T09:46:54;1.73;;;0.98;;
50461;SDS011;45257;37.996;-122.328;2022-07-09T09:49:23;2.88;;;1.00;;
50461;SDS011;45257;37.996;-122.328;2022-07-09T09:54:28;1.17;;;0.80;;
50461;SDS011;45257;37.996;-122.328;2022-07-09T09:56:58;3.50;;;1.00;;
50461;SDS011;45257;37.996;-122.328;2022-07-09T09:59:30;2.35;;;0.90;;
50461;SDS011;45257;37.996;-122.328;2022-07-09T10:02:06;1.40;;;0.63;;
50461;SDS011;45257;37.996;-122.328;2022-07-09T10:04:36;2.50;;;0.70;;
50461;SDS011;45257;37.996;-122.328;2022-07-09T10:07:06;3.45;;;0.90;;
50461;SDS011;45257;37.996;-122.328;2022-07-09T10:09:34;3.50;;;0.95;;
50461;SDS011;45257;37.996;-122.328;2022-07-09T10:12:01;2.35;;;0.73;;
50461;SDS011;45257;37.996;-122.328;2022-07-09T10:14:30;1.27;;;0.60;;
50461;SDS011;45257;37.996;-122.328;2022-07-09T10:19:50;0.93;;;0.70;;
50461;SDS011;45257;37.996;-122.328;2022-07-09T10:22:36;2.50;;;1.00;;
50461;SDS011;45257;37.996;-122.328;2022-07-09T10:25:08;1.52;;;0.80;;
50461;SDS011;45257;37.996;-122.328;2022-07-09T10:27:49;1.35;;;0.73;;
50461;SDS011;45257;37.996;-122.328;2022-07-09T10:30:26;2.90;;;0.90;;
50461;SDS011;45257;37.996;-122.328;2022-07-09T10:33:01;2.22;;;0.80;;
50461;SDS011;45257;37.996;-122.328;2022-07-09T10:38:06;1.15;;;0.70;;
50461;SDS011;45257;37.996;-122.328;2022-07-09T10:40:40;1.30;;;0.80;;
50461;SDS011;45257;37.996;-122.328;2022-07-09T10:43:13;1.15;;;0.70;;
50461;SDS011;45257;37.996;-122.328;2022-07-09T10:45:41;2.15;;;1.00;;
50461;SDS011;45257;37.996;-122.328;2022-07-09T10:48:11;1.98;;;1.10;;
50461;SDS011;45257;37.996;-122.328;2022-07-09T10:50:42;1.42;;;0.70;;
50461;SDS011;45257;37.996;-122.328;2022-07-09T10:53:14;1.38;;;0.80;;
50461;SDS011;45257;37.996;-122.328;2022-07-09T10:55:42;1.55;;;0.80;;
50461;SDS011;45257;37.996;-122.328;2022-07-09T10:58:16;1.15;;;0.60;;
50461;SDS011;45257;37.996;-122.328;2022-07-09T11:00:45;0.70;;;0.60;;
50461;SDS011;45257;37.996;-122.328;2022-07-09T11:03:30;1.48;;;0.55;;
50461;SDS011;45257;37.996;-122.328;2022-07-09T11:05:58;1.60;;;0.80;;
50461;SDS011;45257;37.996;-122.328;2022-07-09T11:08:25;0.95;;;0.60;;
50461;SDS011;45257;37.996;-122.328;2022-07-09T11:10:52;1.13;;;0.60;;
50461;SDS011;45257;37.996;-122.328;2022-07-09T11:13:22;1.52;;;0.75;;
50461;SDS011;45257;37.996;-122.328;2022-07-09T11:16:00;1.15;;;0.70;;
50461;SDS011;45257;37.996;-122.328;2022-07-09T11:18:28;1.15;;;0.70;;
50461;SDS011;45257;37.996;-122.328;2022-07-09T11:20:55;1.45;;;0.63;;
50461;SDS011;45257;37.996;-122.328;2022-07-09T11:23:22;0.93;;;0.60;;
50461;SDS011;45257;37.996;-122.328;2022-07-09T11:25:50;1.00;;;0.60;;
50461;SDS011;45257;37.996;-122.328;2022-07-09T11:28:18;0.82;;;0.55;;
50461;SDS011;45257;37.996;-122.328;2022-07-09T11:30:58;1.98;;;0.70;;
50461;SDS011;45257;37.996;-122.328;2022-07-09T11:33:27;0.75;;;0.70;;
50461;SDS011;45257;37.996;-122.328;2022-07-09T11:36:15;1.20;;;0.70;;
50461;SDS011;45257;37.996;-122.328;2022-07-09T11:38:50;1.27;;;0.63;;
50461;SDS011;45257;37.996;-122.328;2022-07-09T11:41:19;1.42;;;0.80;;
50461;SDS011;45257;37.996;-122.328;2022-07-09T11:43:47;0.73;;;0.55;;
50461;SDS011;45257;37.996;-122.328;2022-07-09T11:46:20;1.95;;;0.77;;
50461;SDS011;45257;37.996;-122.328;2022-07-09T11:48:51;1.70;;;1.08;;
50461;SDS011;45257;37.996;-122.328;2022-07-09T11:51:32;0.77;;;0.60;;
50461;SDS011;45257;37.996;-122.328;2022-07-09T11:54:00;0.75;;;0.60;;
50461;SDS011;45257;37.996;-122.328;2022-07-09T11:56:38;1.20;;;0.50;;
50461;SDS011;45257;37.996;-122.328;2022-07-09T11:59:11;2.47;;;0.88;;
50461;SDS011;45257;37.996;-122.328;2022-07-09T12:01:38;1.90;;;0.45;;
50461;SDS011;45257;37.996;-122.328;2022-07-09T12:04:05;0.73;;;0.50;;
50461;SDS011;45257;37.996;-122.328;2022-07-09T12:06:47;0.65;;;0.60;;
50461;SDS011;45257;37.996;-122.328;2022-07-09T12:09:26;0.50;;;0.50;;
50461;SDS011;45257;37.996;-122.328;2022-07-09T12:11:56;2.80;;;0.60;;
50461;SDS011;45257;37.996;-122.328;2022-07-09T12:14:24;2.30;;;0.65;;
50461;SDS011;45257;37.996;-122.328;2022-07-09T12:16:52;0.60;;;0.50;;
50461;SDS011;45257;37.996;-122.328;2022-07-09T12:19:19;0.68;;;0.50;;
50461;SDS011;45257;37.996;-122.328;2022-07-09T12:21:46;1.23;;;0.60;;
50461;SDS011;45257;37.996;-122.328;2022-07-09T12:24:13;2.00;;;0.85;;
50461;SDS011;45257;37.996;-122.328;2022-07-09T12:26:40;0.63;;;0.43;;
50461;SDS011;45257;37.996;-122.328;2022-07-09T12:29:07;0.75;;;0.50;;
50461;SDS011;45257;37.996;-122.328;2022-07-09T12:31:34;0.55;;;0.50;;
50461;SDS011;45257;37.996;-122.328;2022-07-09T12:34:04;0.50;;;0.47;;
50461;SDS011;45257;37.996;-122.328;2022-07-09T12:36:31;0.70;;;0.50;;
50461;SDS011;45257;37.996;-122.328;2022-07-09T12:38:59;1.42;;;0.60;;
50461;SDS011;45257;37.996;-122.328;2022-07-09T12:41:26;0.82;;;0.50;;
50461;SDS011;45257;37.996;-122.328;2022-07-09T12:43:53;1.02;;;0.60;;
50461;SDS011;45257;37.996;-122.328;2022-07-09T12:46:20;1.40;;;0.55;;
50461;SDS011;45257;37.996;-122.328;2022-07-09T12:48:47;0.63;;;0.50;;
50461;SDS011;45257;37.996;-122.328;2022-07-09T12:51:14;0.40;;;0.40;;
50461;SDS011;45257;37.996;-122.328;2022-07-09T12:53:42;0.85;;;0.50;;
50461;SDS011;45257;37.996;-122.328;2022-07-09T12:56:09;2.72;;;0.60;;
50461;SDS011;45257;37.996;-122.328;2022-07-09T12:58:37;1.23;;;0.50;;
50461;SDS011;45257;37.996;-122.328;2022-07-09T13:01:05;0.73;;;0.50;;
50461;SDS011;45257;37.996;-122.328;2022-07-09T13:03:32;0.70;;;0.50;;
50461;SDS011;45257;37.996;-122.328;2022-07-09T13:06:00;0.63;;;0.50;;
50461;SDS011;45257;37.996;-122.328;2022-07-09T13:08:27;0.95;;;0.50;;
50461;SDS011;45257;37.996;-122.328;2022-07-09T13:10:54;1.02;;;0.60;;
50461;SDS011;45257;37.996;-122.328;2022-07-09T13:13:21;0.60;;;0.32;;
50461;SDS011;45257;37.996;-122.328;2022-07-09T13:15:48;0.90;;;0.45;;
50461;SDS011;45257;37.996;-122.328;2022-07-09T13:18:17;1.40;;;0.43;;
50461;SDS011;45257;37.996;-122.328;2022-07-09T13:20:44;0.90;;;0.57;;
50461;SDS011;45257;37.996;-122.328;2022-07-09T13:23:11;1.38;;;0.40;;
50461;SDS011;45257;37.996;-122.328;2022-07-09T13:25:38;1.38;;;0.43;;
50461;SDS011;45257;37.996;-122.328;2022-07-09T13:28:05;1.33;;;0.50;;
50461;SDS011;45257;37.996;-122.328;2022-07-09T13:30:32;0.88;;;0.60;;
50461;SDS011;45257;37.996;-122.328;2022-07-09T13:33:00;0.50;;;0.50;;
50461;SDS011;45257;37.996;-122.328;2022-07-09T13:35:27;0.90;;;0.50;;
50461;SDS011;45257;37.996;-122.328;2022-07-09T13:37:54;1.20;;;0.50;;
50461;SDS011;45257;37.996;-122.328;2022-07-09T13:40:21;0.57;;;0.50;;
50461;SDS011;45257;37.996;-122.328;2022-07-09T13:42:48;1.30;;;0.50;;
50461;SDS011;45257;37.996;-122.328;2022-07-09T13:45:15;0.63;;;0.50;;
50461;SDS011;45257;37.996;-122.328;2022-07-09T13:47:42;0.93;;;0.52;;
50461;SDS011;45257;37.996;-122.328;2022-07-09T13:50:09;0.40;;;0.40;;
50461;SDS011;45257;37.996;-122.328;2022-07-09T13:52:42;1.27;;;0.40;;
50461;SDS011;45257;37.996;-122.328;2022-07-09T13:55:10;0.55;;;0.50;;
50461;SDS011;45257;37.996;-122.328;2022-07-09T13:57:37;0.40;;;0.40;;
50461;SDS011;45257;37.996;-122.328;2022-07-09T14:00:05;0.50;;;0.40;;
50461;SDS011;45257;37.996;-122.328;2022-07-09T14:02:33;1.45;;;0.50;;
50461;SDS011;45257;37.996;-122.328;2022-07-09T14:05:02;0.55;;;0.38;;
50461;SDS011;45257;37.996;-122.328;2022-07-09T14:07:30;1.38;;;0.40;;
50461;SDS011;45257;37.996;-122.328;2022-07-09T14:09:57;0.60;;;0.60;;
50461;SDS011;45257;37.996;-122.328;2022-07-09T14:12:25;0.93;;;0.35;;
50461;SDS011;45257;37.996;-122.328;2022-07-09T14:14:52;0.38;;;0.38;;
50461;SDS011;45257;37.996;-122.328;2022-07-09T14:17:19;0.68;;;0.50;;
50461;SDS011;45257;37.996;-122.328;2022-07-09T14:19:46;0.65;;;0.40;;
50461;SDS011;45257;37.996;-122.328;2022-07-09T14:22:13;0.68;;;0.60;;
50461;SDS011;45257;37.996;-122.328;2022-07-09T14:24:40;0.68;;;0.43;;
50461;SDS011;45257;37.996;-122.328;2022-07-09T14:27:11;0.82;;;0.40;;
50461;SDS011;45257;37.996;-122.328;2022-07-09T14:29:38;2.15;;;0.60;;